Aviation Digital Data Service (ADDS)

Output produced by METARs form (1049 UTC 03 September 2015)
found at http://www.aviationweather.gov/adds/metars/
 
KBFD 031037Z AUTO 00000KT 1/2SM FG VV002 13/13 A3002 RMK AO2 T01330128 $
KBFD 031032Z AUTO 00000KT 1/4SM FG VV003 13/12 A3002 RMK AO2 T01280122 $
KBFD 031023Z AUTO 12003KT 3/4SM BR VV004 13/12 A3002 RMK AO2 T01280122 $
KBFD 031010Z AUTO 00000KT 1SM BR VV005 14/13 A3002 RMK AO2 T01390128 $
KBFD 031003Z AUTO 00000KT 2 1/2SM BR BKN004 14/13 A3002 RMK AO2 T01390128 $
KBFD 030953Z AUTO 00000KT 1/2SM FG VV004 14/13 A3002 RMK AO2 SLP151 T01390133 $
KBFD 030950Z AUTO 00000KT 3/4SM BR VV003 14/13 A3001 RMK AO2 VIS 1/4V5 $
KBFD 030913Z AUTO 00000KT 3SM BR OVC003 14/13 A3001 RMK AO2 T01390133 $
KBFD 030910Z AUTO 00000KT 1SM BR VV003 14/13 A3001 RMK AO2 T01440133 $
KBFD 030901Z AUTO 00000KT 1/2SM FG VV002 14/13 A3001 RMK AO2 T01390133 $
KBFD 030853Z AUTO 00000KT 1/4SM FG VV002 14/13 A3001 RMK AO2 SLP145 T01390133 58004 $
KBFD 030828Z AUTO 00000KT 1/4SM FG VV002 13/13 A3001 RMK AO2 T01330128 $
KBFD 030816Z AUTO 12004KT 3/4SM BR VV003 13/13 A3001 RMK AO2 T01330128 $
KBFD 030810Z AUTO 13003KT 2 1/2SM BR BKN006 13/13 A3001 RMK AO2 T01330128 $
KBFD 030801Z AUTO 12003KT 2SM BR FEW006 13/13 A3002 RMK AO2 T01330128 $
KBFD 030753Z AUTO 13003KT 1SM HZ VV007 16/13 A3002 RMK AO2 VIS 1/2V3 SLP147 T01560128 $
KBFD 030750Z AUTO 00000KT 1 1/2SM BR FEW009 16/13 A3001 RMK AO2 VIS 1/2V4
KBFD 030720Z AUTO 00000KT 5SM BR FEW005 16/14 A3002 RMK AO2 T01560144
KBFD 030712Z AUTO 00000KT 1 1/4SM BR FEW005 14/14 A3002 RMK AO2 VIS 1/2V5 T01440139
KBFD 030653Z AUTO 00000KT 3/4SM BR VV005 15/14 A3002 RMK AO2 VIS 1/2V2 SLP149 T01500139
KBFD 030641Z AUTO 12003KT 1/2SM FG VV005 14/14 A3002 RMK AO2 T01440139
KBFD 030635Z AUTO 00000KT 1/4SM FG VV004 14/14 A3002 RMK AO2 T01440139
KBFD 030629Z AUTO 00000KT 1SM BR VV004 14/14 A3002 RMK AO2 VIS 1/4V5 T01440139
KBFD 030626Z AUTO 00000KT 3SM BR FEW003 15/14 A3002 RMK AO2 T01500144
KBFD 030618Z AUTO 00000KT 2 1/2SM BR SCT003 16/14 A3002 RMK AO2 T01560144
KBFD 030613Z AUTO 00000KT 1SM BR VV004 16/14 A3003 RMK AO2 T01560144
KBFD 030555Z AUTO 00000KT 1/4SM FG VV004 15/14 A3003 RMK AO2 T01500139
KBFD 030553Z AUTO 00000KT 1/2SM FG VV005 15/14 A3003 RMK AO2 SLP153 T01500139 10211 20150 58005
KBFD 030537Z AUTO 00000KT 3/4SM BR VV003 16/15 A3003 RMK AO2 T01610150
KBFD 030521Z AUTO 00000KT 1/4SM FG VV003 15/14 A3003 RMK AO2 T01500144
KBFD 030513Z AUTO 00000KT 1/2SM FG VV004 16/15 A3003 RMK AO2 T01610150
KBFD 030509Z AUTO 00000KT 1SM BR VV005 16/14 A3003 RMK AO2 VIS 1/4V4 T01560144
KBFD 030453Z AUTO 00000KT 2SM BR SCT004 16/15 A3004 RMK AO2 SLP157 T01610150 402940117
KBFD 030438Z AUTO 00000KT 1/4SM FG VV003 16/15 A3004 RMK AO2 T01610150
KBFD 030431Z AUTO 00000KT 1SM BR VV004 17/16 A3005 RMK AO2 VIS 1/2V4 T01670156
KBFD 030423Z AUTO 00000KT 1/2SM FG CLR 17/16 A3005 RMK AO2 T01670156
KBFD 030415Z AUTO 00000KT 1 3/4SM BR CLR 17/16 A3005 RMK AO2 VIS 1/2V5 T01670156
KBFD 030353Z AUTO 00000KT 4SM BR CLR 17/16 A3005 RMK AO2 SLP158 T01670156
KBFD 030349Z AUTO 00000KT 4SM BR CLR 17/16 A3005 RMK AO2
KBFD 030342Z AUTO 00000KT 2SM BR CLR 17/17 A3004 RMK AO2 T01720167
KBFD 030336Z AUTO 00000KT 1/2SM FG CLR 17/17 A3005 RMK AO2 T01720167
KBFD 030321Z AUTO 00000KT 1 3/4SM BR CLR 18/17 A3005 RMK AO2 T01780167
KBFD 030314Z AUTO 00000KT 3SM BR CLR 18/17 A3005 RMK AO2 T01780167
KBFD 030308Z AUTO 00000KT 1 3/4SM BR CLR 18/17 A3005 RMK AO2 T01780167
KBFD 030253Z AUTO 00000KT 4SM BR CLR 18/17 A3005 RMK AO2 SLP160 T01830172 51003
KBFD 030250Z AUTO 00000KT 4SM BR CLR 18/17 A3005 RMK AO2
KBFD 030243Z AUTO 00000KT 2SM BR CLR 18/17 A3005 RMK AO2 T01830172
KBFD 030230Z AUTO 00000KT 1/2SM FG CLR 18/17 A3005 RMK AO2 VIS 1/4V2 1/2 T01780172
KBFD 030218Z AUTO 00000KT 1 3/4SM BR CLR 18/17 A3005 RMK AO2 T01830172
KBFD 030153Z AUTO 00000KT 5SM BR CLR 19/18 A3005 RMK AO2 SLP160 T01890178
KBFD 030053Z AUTO 00000KT 8SM CLR 21/18 A3004 RMK AO2 SLP158 T02110183
KBFD 022353Z AUTO 32003KT 8SM SCT043 BKN060 BKN110 24/18 A3003 RMK AO2 SLP158 T02390183 10294 20239 55004
KBFD 022253Z AUTO 00000KT 10SM FEW075 BKN120 25/18 A3003 RMK AO2 LTG DSNT SE AND W SLP157 T02500183
KBFD 022153Z AUTO 24005KT 10SM CLR 25/18 A3004 RMK AO2 LTG DSNT SE SLP159 T02500178
KBFD 022053Z AUTO 32008KT 10SM FEW045 FEW060 SCT110 28/17 A3004 RMK AO2 SLP160 T02780172 56013
KBFD 021953Z AUTO 34008KT 10SM FEW044 SCT095 BKN120 29/17 A3006 RMK AO2 LTG DSNT SW AND W SLP162 T02890172
KBFD 021853Z AUTO 29007KT 10SM FEW041 FEW055 29/17 A3007 RMK AO2 SLP167 T02890167
KBFD 021753Z AUTO 28006KT 10SM SCT043 28/17 A3009 RMK AO2 SLP172 T02830167 10289 20183 58015
KBFD 021653Z AUTO 29006KT 10SM CLR 27/17 A3011 RMK AO2 SLP180 T02720172
KBFD 021553Z AUTO 32009KT 10SM SCT028 BKN036 26/18 A3013 RMK AO2 SLP189 T02560178
KBFD 021453Z AUTO 25006KT 10SM CLR 25/17 A3013 RMK AO2 SLP189 T02500167 58005
KBFD 021353Z AUTO 27005KT 8SM CLR 23/17 A3014 RMK AO2 SLP191 T02330167
KBFD 021253Z AUTO 00000KT 4SM BR CLR 18/17 A3014 RMK AO2 SLP195 T01830167
KBFD 021217Z AUTO 00000KT 3SM BR CLR 16/14 A3015 RMK AO2 T01560144
KBFD 021151Z AUTO 00000KT 2 1/2SM BR SCT014 14/13 A3015 RMK AO2 SLP198 T01390128 10144 20117 53004
KBFD 021150Z AUTO 00000KT 2 1/2SM BR SCT014 14/13 A3015 RMK AO2
KBFD 021141Z AUTO 00000KT 3SM BR BKN012 13/12 A3015 RMK AO2 T01280117
KBFD 021129Z AUTO 00000KT 2SM BR SCT011 12/12 A3015 RMK AO2 T01220117
KBFD 021122Z AUTO 00000KT 1SM BR VV011 12/11 A3015 RMK AO2 T01220111
KBFD 021115Z AUTO 00000KT 2SM BR BKN010 12/11 A3015 RMK AO2 T01220111
KBFD 021101Z AUTO 00000KT 3SM BR BKN008 12/11 A3014 RMK AO2 T01220111
KBFD 021053Z AUTO 00000KT 1SM BR VV007 12/11 A3014 RMK AO2 SLP195 T01220111
KBFD 021046Z AUTO 00000KT 1/4SM FG VV005 12/11 A3014 RMK AO2 T01170111
KBFD 021038Z AUTO 00000KT 1/2SM FG VV005 12/11 A3014 RMK AO2 T01170111
KBFD 021010Z AUTO 00000KT 1 3/4SM BR OVC009 12/11 A3014 RMK AO2 VIS 1 1/4V3 T01170111
KBFD 020959Z AUTO 00000KT 3SM BR BKN009 12/11 A3014 RMK AO2 T01170111
KBFD 020953Z AUTO 00000KT 1SM BR VV008 12/11 A3014 RMK AO2 SLP192 T01220111
KBFD 020951Z AUTO 00000KT 1SM BR VV009 12/11 A3014 RMK AO2
KBFD 020927Z AUTO 00000KT 3/4SM BR VV010 12/12 A3014 RMK AO2 T01220117
KBFD 020924Z AUTO 00000KT 1 1/2SM BR FEW010 12/11 A3014 RMK AO2 T01220111
KBFD 020911Z AUTO 00000KT 5SM BR SCT008 12/12 A3014 RMK AO2 T01220117
KBFD 020903Z AUTO 00000KT 2SM BR SCT008 12/12 A3014 RMK AO2 T01220117
KBFD 020900Z AUTO 00000KT 1SM BR VV008 12/12 A3014 RMK AO2 T01220117
KBFD 020853Z AUTO 00000KT 1/4SM FG VV008 12/12 A3014 RMK AO2 SLP191 T01220117 55000
KBFD 020845Z AUTO 00000KT 1/4SM FG VV007 12/12 A3014 RMK AO2 T01220117
KBFD 020840Z AUTO 00000KT 1 1/2SM BR BKN006 12/12 A3014 RMK AO2 VIS 1/4V5 T01220117
KBFD 020823Z AUTO 00000KT 3SM BR OVC006 13/12 A3014 RMK AO2 T01280117
KBFD 020812Z AUTO 00000KT 1 1/4SM BR BKN008 12/12 A3013 RMK AO2 VIS 1/2V5 T01220117
KBFD 020808Z AUTO 00000KT 3SM BR BKN010 12/11 A3014 RMK AO2 T01220111
KBFD 020801Z AUTO 00000KT 3SM BR SCT009 13/12 A3013 RMK AO2 T01280117
KBFD 020753Z AUTO 00000KT 1 1/4SM BR FEW009 13/12 A3013 RMK AO2 SLP189 T01330117
KBFD 020748Z AUTO 00000KT 1/2SM FG VV009 13/12 A3013 RMK AO2
KBFD 020741Z AUTO 00000KT 3/4SM BR CLR 13/12 A3013 RMK AO2 VIS 1/4V5 T01280122
KBFD 020705Z AUTO 00000KT 3SM BR SCT011 14/13 A3013 RMK AO2 T01390128
KBFD 020702Z AUTO 00000KT 1 1/2SM BR SCT011 14/13 A3013 RMK AO2 VIS 1/2V4 T01390128
KBFD 020653Z AUTO 00000KT 1/2SM FG VV011 14/13 A3014 RMK AO2 SLP190 T01390128
KBFD 020646Z AUTO 00000KT 1/2SM FG VV010 13/12 A3013 RMK AO2 T01330122
KBFD 020638Z AUTO 00000KT 3/4SM BR CLR 13/13 A3013 RMK AO2 T01330128
KBFD 020624Z AUTO 00000KT 2SM BR CLR 14/13 A3013 RMK AO2 VIS 3/4V3 T01440128
KBFD 020609Z AUTO 00000KT 6SM BR CLR 14/13 A3014 RMK AO2 T01440128
KBFD 020600Z AUTO 00000KT 2 1/2SM BR CLR 14/13 A3014 RMK AO2 T01440133
KBFD 020553Z AUTO 00000KT 3SM BR CLR 14/13 A3014 RMK AO2 SLP193 T01440133 10222 20139 58002
KBFD 020536Z AUTO 00000KT 3SM BR CLR 14/13 A3015 RMK AO2 T01390133
KBFD 020533Z AUTO 00000KT 1 1/4SM BR FEW012 14/13 A3015 RMK AO2 T01390133
KBFD 020453Z AUTO 00000KT 1/2SM FG VV011 14/14 A3015 RMK AO2 VIS 1/4V3 SLP196 T01440139 402830100
KBFD 020450Z AUTO 00000KT 1 1/4SM BR CLR 14/13 A3015 RMK AO2 VIS 1/4V5
KBFD 020439Z AUTO 00000KT 3SM BR CLR 14/13 A3016 RMK AO2 T01440133
KBFD 020430Z AUTO 00000KT 1 1/4SM BR FEW006 15/14 A3016 RMK AO2 T01500139
KBFD 020423Z AUTO 00000KT 1SM BR VV006 14/14 A3016 RMK AO2 T01440139
KBFD 020406Z AUTO 00000KT 1/4SM FG VV006 14/14 A3016 RMK AO2 T01440139
KBFD 020359Z AUTO 00000KT 1SM BR VV006 15/14 A3016 RMK AO2 VIS 1/4V4 T01500139
KBFD 020356Z AUTO 00000KT 1 3/4SM BR CLR 15/14 A3016 RMK AO2 T01500144
KBFD 020353Z AUTO 00000KT 4SM BR CLR 16/14 A3016 RMK AO2 SLP197 T01560144
KBFD 020343Z AUTO 00000KT 5SM BR CLR 16/14 A3015 RMK AO2 T01560144
KBFD 020335Z AUTO 00000KT 1 1/4SM BR FEW003 16/15 A3015 RMK AO2 T01560150
KBFD 020331Z AUTO 00000KT 1/2SM FG VV003 16/15 A3015 RMK AO2 T01560150
KBFD 020317Z AUTO 00000KT 1/4SM FG VV003 16/14 A3016 RMK AO2 T01560144
KBFD 020310Z AUTO 00000KT 1SM BR VV003 16/14 A3015 RMK AO2 VIS 1/2V5 T01560144
KBFD 020303Z AUTO 00000KT 2 1/2SM BR FEW005 16/15 A3015 RMK AO2 T01560150
KBFD 020301Z AUTO 00000KT 1SM BR VV005 16/15 A3015 RMK AO2 T01560150
KBFD 020255Z AUTO 00000KT 1/4SM FG VV005 16/15 A3015 RMK AO2 T01610150
KBFD 020250Z AUTO 00000KT 1/2SM FG VV004 16/15 A3015 RMK AO2 SLP196 T01610150 50006
KBFD 020249Z AUTO 00000KT 1/2SM FG VV004 16/15 A3015 RMK AO2
KBFD 020240Z AUTO 00000KT 1SM BR VV005 16/15 A3015 RMK AO2 VIS 1/2V2 1/2 T01610150
KBFD 020227Z AUTO 00000KT 1 3/4SM BR CLR 17/16 A3015 RMK AO2 T01720156
KBFD 020153Z AUTO 00000KT 5SM BR CLR 18/16 A3015 RMK AO2 SLP197 T01780161
KBFD 020053Z AUTO 00000KT 7SM CLR 20/17 A3014 RMK AO2 SLP197 T02000172
KBFD 012353Z AUTO 00000KT 7SM CLR 22/17 A3013 RMK AO2 SLP193 T02220172 10283 20222 53000
KBFD 012253Z AUTO 31005KT 9SM CLR 25/17 A3012 RMK AO2 SLP190 T02500167